Mehama, Oregon
Current Conditions -  °F | °C
As of 6:56 AM on Saturday 25 Oct 2014 (Local Time) from KSLE Reporting Station
Light Rain Light Rain  
Wind Chill: 51°   Ceiling: 7000
Heat Index: 51°   Visibility: 6mi
Dew Point: 49°   Wind: 16mph
Humidity: 92%   Direction: 110°ESE
Pressure: 29.53"   Gusts: NA
Location:  44.79°N, 122.62°W
Report Text: KSLE 251356Z AUTO 11014KT 6SM -RA BR FEW007 BKN070 OVC090 11/09 A2953 RMK AO2 SLP001 P0008 T01060094
Loading
Personal Weather Stations






























Interactive Weather Map New forecast layout! Learn more

10-Day Weather Forecast

Advertisements
Track Severe Weather on mobile